createdAt,value
2018-02-15T00:01:24.309Z,0.85
2018-02-15T00:03:52.033Z,0.90
2018-02-15T00:06:19.484Z,0.95
2018-02-15T00:08:46.933Z,0.84
2018-02-15T00:11:14.489Z,0.69
2018-02-15T00:13:41.968Z,0.73
2018-02-15T00:16:09.889Z,0.73
2018-02-15T00:18:37.339Z,0.67
2018-02-15T00:21:04.792Z,0.68
2018-02-15T00:23:32.265Z,0.72
2018-02-15T00:25:59.925Z,0.72
2018-02-15T00:28:27.448Z,0.86
2018-02-15T00:30:54.896Z,0.79
2018-02-15T00:33:22.361Z,0.85
2018-02-15T00:35:49.829Z,0.84
2018-02-15T00:38:17.274Z,0.85
2018-02-15T00:40:45.104Z,0.88
2018-02-15T00:43:12.600Z,0.80
2018-02-15T00:45:40.046Z,0.77
2018-02-15T00:48:07.516Z,0.84
2018-02-15T00:50:34.965Z,0.85
2018-02-15T00:53:02.757Z,0.91
2018-02-15T00:55:30.200Z,0.92
2018-02-15T00:57:57.647Z,0.98
2018-02-15T01:00:25.120Z,1.13
2018-02-15T01:02:52.561Z,1.00
2018-02-15T01:05:20.037Z,1.04
2018-02-15T01:07:47.488Z,0.95
2018-02-15T01:10:14.937Z,0.96
2018-02-15T01:12:42.404Z,1.09
2018-02-15T01:15:09.849Z,1.14
2018-02-15T01:17:37.460Z,1.09
2018-02-15T01:20:04.905Z,0.99
2018-02-15T01:22:32.364Z,0.97
2018-02-15T01:24:59.856Z,0.93
2018-02-15T01:27:27.305Z,0.93
2018-02-15T01:29:54.901Z,0.97
2018-02-15T01:32:22.372Z,0.95
2018-02-15T01:34:49.812Z,0.97
2018-02-15T01:37:17.304Z,1.00
2018-02-15T01:39:44.749Z,0.98
2018-02-15T01:42:12.225Z,0.95
2018-02-15T01:44:39.670Z,0.93
2018-02-15T01:47:07.116Z,0.94
2018-02-15T01:49:34.612Z,1.01
2018-02-15T01:52:02.060Z,1.00
2018-02-15T01:54:29.979Z,1.08
2018-02-15T01:56:57.429Z,1.03
2018-02-15T01:59:24.909Z,1.09
2018-02-15T02:01:52.378Z,1.05
2018-02-15T02:04:19.824Z,1.04
2018-02-15T02:06:47.292Z,1.05
2018-02-15T02:09:14.754Z,1.16
2018-02-15T02:11:42.201Z,1.12
2018-02-15T02:14:09.668Z,1.24
2018-02-15T02:16:37.113Z,1.26
2018-02-15T02:19:04.580Z,1.25
2018-02-15T02:21:32.050Z,1.34
2018-02-15T02:23:59.697Z,1.32
2018-02-15T02:26:27.172Z,1.29
2018-02-15T02:28:54.653Z,1.22
2018-02-15T02:31:22.123Z,1.19
2018-02-15T02:33:49.590Z,1.19
2018-02-15T02:36:17.045Z,1.19
2018-02-15T02:38:44.513Z,1.15
2018-02-15T02:41:11.960Z,1.20
2018-02-15T02:43:39.472Z,1.17
2018-02-15T02:46:06.937Z,1.14
2018-02-15T02:48:34.389Z,1.17
2018-02-15T02:51:01.866Z,1.17
2018-02-15T02:53:29.352Z,1.38
2018-02-15T02:55:57.065Z,1.59
2018-02-15T02:58:24.508Z,1.34
2018-02-15T03:00:51.968Z,1.35
2018-02-15T03:03:19.437Z,1.27
2018-02-15T03:05:46.894Z,1.23
2018-02-15T03:08:14.388Z,1.26
2018-02-15T03:10:41.834Z,1.22
2018-02-15T03:13:09.317Z,1.21
2018-02-15T03:15:36.802Z,1.23
2018-02-15T03:18:04.288Z,1.24
2018-02-15T03:20:31.800Z,1.32
2018-02-15T03:22:59.392Z,1.25
2018-02-15T03:25:26.849Z,1.21
2018-02-15T03:27:54.317Z,1.22
2018-02-15T03:30:21.762Z,1.28
2018-02-15T03:32:49.258Z,1.26
2018-02-15T03:35:16.716Z,1.26
2018-02-15T03:37:44.170Z,1.31
2018-02-15T03:40:11.661Z,1.27
2018-02-15T03:42:39.108Z,1.34
2018-02-15T03:45:06.753Z,1.39
2018-02-15T03:47:34.200Z,1.52
2018-02-15T03:50:01.657Z,1.56
2018-02-15T03:52:29.126Z,1.69
2018-02-15T03:54:56.691Z,1.71
2018-02-15T03:57:24.163Z,1.65
2018-02-15T03:59:51.608Z,1.77
2018-02-15T04:02:19.056Z,1.72
2018-02-15T04:04:46.529Z,1.60
2018-02-15T04:07:13.997Z,1.63
2018-02-15T04:09:41.860Z,1.55
2018-02-15T04:12:09.304Z,1.49
2018-02-15T04:14:36.778Z,1.59
2018-02-15T04:17:04.252Z,1.61
2018-02-15T04:19:31.705Z,1.59
2018-02-15T04:21:59.205Z,1.68
2018-02-15T04:24:26.662Z,1.67
2018-02-15T04:26:54.111Z,1.60
2018-02-15T04:29:21.825Z,1.65
2018-02-15T04:31:49.268Z,1.68
2018-02-15T04:34:16.740Z,1.46
2018-02-15T04:36:44.233Z,1.55
2018-02-15T04:39:11.679Z,1.55
2018-02-15T04:41:39.121Z,1.48
2018-02-15T04:44:06.752Z,1.42
2018-02-15T04:46:34.225Z,1.33
2018-02-15T04:49:01.681Z,1.39
2018-02-15T04:51:29.257Z,1.39
2018-02-15T04:53:56.708Z,1.35
2018-02-15T04:56:24.166Z,1.31
2018-02-15T04:58:51.645Z,1.36
2018-02-15T05:01:19.096Z,1.39
2018-02-15T05:03:47.496Z,1.37
2018-02-15T05:06:15.305Z,1.38
2018-02-15T05:08:42.789Z,1.27
2018-02-15T05:11:10.237Z,1.22
2018-02-15T05:13:37.716Z,1.23
2018-02-15T05:16:05.186Z,1.31
2018-02-15T05:18:32.651Z,1.37
2018-02-15T05:21:00.361Z,1.36
2018-02-15T05:23:27.870Z,1.33
2018-02-15T05:25:55.323Z,1.34
2018-02-15T05:28:22.944Z,1.38
2018-02-15T05:30:50.396Z,1.38
2018-02-15T05:33:17.847Z,1.41
2018-02-15T05:35:45.552Z,1.40
2018-02-15T05:38:13.004Z,1.38
2018-02-15T05:40:40.467Z,1.42
2018-02-15T05:43:08.300Z,1.48
2018-02-15T05:45:35.744Z,1.44
2018-02-15T05:48:03.192Z,1.42
2018-02-15T05:50:30.984Z,1.47
2018-02-15T05:52:58.428Z,1.36
2018-02-15T05:55:25.981Z,1.20
2018-02-15T05:57:53.612Z,1.19
2018-02-15T06:00:21.061Z,1.18
2018-02-15T06:02:48.512Z,1.16
2018-02-15T06:05:16.000Z,1.11
2018-02-15T06:07:43.444Z,1.00
2018-02-15T06:10:10.892Z,0.87
2018-02-15T06:12:38.536Z,0.79
2018-02-15T06:15:06.000Z,0.78
2018-02-15T06:17:33.440Z,0.80
2018-02-15T06:20:01.240Z,0.56
2018-02-15T06:22:28.702Z,0.35
2018-02-15T06:24:56.149Z,0.37
2018-02-15T06:27:23.620Z,0.39
2018-02-15T06:29:51.077Z,0.46
2018-02-15T06:32:18.539Z,0.47
2018-02-15T06:34:46.161Z,0.47
2018-02-15T06:37:13.640Z,0.50
2018-02-15T06:39:41.093Z,0.75
2018-02-15T06:42:08.724Z,0.74
2018-02-15T06:44:36.174Z,0.78
2018-02-15T06:47:03.645Z,0.72
2018-02-15T06:49:31.120Z,0.78
2018-02-15T06:51:58.583Z,0.70
2018-02-15T06:54:26.141Z,0.67
2018-02-15T06:56:53.609Z,0.67
2018-02-15T06:59:21.085Z,0.39
2018-02-15T07:01:48.585Z,0.50
2018-02-15T07:04:16.148Z,0.30
2018-02-15T07:06:43.605Z,0.30
2018-02-15T07:09:11.093Z,0.47
2018-02-15T07:11:38.537Z,0.56
2018-02-15T07:14:06.044Z,0.56
2018-02-15T07:16:33.489Z,0.51
2018-02-15T07:19:00.932Z,0.50
2018-02-15T07:21:28.420Z,0.40
2018-02-15T07:23:55.867Z,0.34
2018-02-15T07:26:23.544Z,0.50
2018-02-15T07:28:51.181Z,0.50
2018-02-15T07:31:18.633Z,0.49
2018-02-15T07:33:46.105Z,0.45
2018-02-15T07:36:13.574Z,0.48
2018-02-15T07:38:41.044Z,0.37
2018-02-15T07:41:08.513Z,0.47
2018-02-15T07:43:35.965Z,0.39
2018-02-15T07:46:03.449Z,0.37
2018-02-15T07:48:30.888Z,0.36
2018-02-15T07:50:58.372Z,0.40
2018-02-15T07:53:25.865Z,0.30
2018-02-15T07:55:53.320Z,0.31
2018-02-15T07:58:20.768Z,0.31
2018-02-15T08:00:48.236Z,0.34
2018-02-15T08:03:15.693Z,0.26
2018-02-15T08:05:43.142Z,0.26
2018-02-15T08:08:10.808Z,0.18
2018-02-15T08:10:38.265Z,0.30
2018-02-15T08:13:05.785Z,0.25
2018-02-15T08:15:33.281Z,0.24
2018-02-15T08:18:00.744Z,0.25
2018-02-15T08:20:28.432Z,0.28
2018-02-15T08:22:55.879Z,0.42
2018-02-15T08:25:23.380Z,0.33
2018-02-15T08:27:50.857Z,0.41
2018-02-15T08:30:18.319Z,0.32
2018-02-15T08:32:46.029Z,0.49
2018-02-15T08:35:13.476Z,0.49
2018-02-15T08:37:40.920Z,0.53
2018-02-15T08:40:08.386Z,0.52
2018-02-15T08:42:35.841Z,0.48
2018-02-15T08:45:03.468Z,0.55
2018-02-15T08:47:30.920Z,0.61
2018-02-15T08:49:58.377Z,0.54
2018-02-15T08:52:25.869Z,0.59
2018-02-15T08:54:53.411Z,0.54
2018-02-15T08:57:21.025Z,0.58
2018-02-15T08:59:48.472Z,0.53
2018-02-15T09:02:15.941Z,0.59
2018-02-15T09:04:43.405Z,0.68
2018-02-15T09:07:10.861Z,0.75
2018-02-15T09:09:38.485Z,0.84
2018-02-15T09:12:05.936Z,0.72
2018-02-15T09:14:33.409Z,0.77
2018-02-15T09:17:00.896Z,0.86
2018-02-15T09:19:28.345Z,0.86
2018-02-15T09:21:55.915Z,0.94
2018-02-15T09:24:23.365Z,1.01
2018-02-15T09:26:50.821Z,1.06
2018-02-15T09:29:18.289Z,1.20
2018-02-15T09:31:45.737Z,1.16
2018-02-15T09:34:13.476Z,1.18
2018-02-15T09:36:40.937Z,1.05
2018-02-15T09:39:08.381Z,1.08
2018-02-15T09:41:35.857Z,1.42
2018-02-15T09:44:03.320Z,1.38
2018-02-15T09:46:30.801Z,1.20
2018-02-15T09:48:58.257Z,1.48
2018-02-15T09:51:25.707Z,1.31
2018-02-15T09:53:53.176Z,1.33
2018-02-15T09:56:20.665Z,1.32
2018-02-15T09:58:48.145Z,1.18
2018-02-15T10:01:15.593Z,1.25
2018-02-15T10:03:43.059Z,1.29
2018-02-15T10:06:10.553Z,1.30
2018-02-15T10:08:38.035Z,1.27
2018-02-15T10:11:05.577Z,1.38
2018-02-15T10:13:33.221Z,1.53
2018-02-15T10:16:00.680Z,1.31
2018-02-15T10:18:28.171Z,1.32
2018-02-15T10:20:55.636Z,1.30
2018-02-15T10:23:23.128Z,1.36
2018-02-15T10:25:50.577Z,1.57
2018-02-15T10:28:18.021Z,1.76
2018-02-15T10:30:45.488Z,1.61
2018-02-15T10:33:12.941Z,1.53
2018-02-15T10:35:40.427Z,1.64
2018-02-15T10:38:07.881Z,1.85
2018-02-15T10:40:35.326Z,1.74
2018-02-15T10:43:02.808Z,1.72
2018-02-15T10:45:30.270Z,1.89
2018-02-15T10:47:58.028Z,1.94
2018-02-15T10:50:25.477Z,1.77
2018-02-15T10:52:52.937Z,1.81
2018-02-15T10:55:20.409Z,1.93
2018-02-15T10:57:47.905Z,1.86
2018-02-15T11:00:15.525Z,1.90
2018-02-15T11:02:43.032Z,1.90
2018-02-15T11:05:16.064Z,1.81
2018-02-15T11:07:43.516Z,1.82
2018-02-15T11:10:10.973Z,1.96
2018-02-15T11:12:38.437Z,2.00
2018-02-15T11:15:05.895Z,2.04
2018-02-15T11:17:33.384Z,2.05
2018-02-15T11:20:00.836Z,2.03
2018-02-15T11:22:28.340Z,2.14
2018-02-15T11:24:56.022Z,2.27
2018-02-15T11:27:23.477Z,2.27
2018-02-15T11:29:51.118Z,2.08
2018-02-15T11:32:18.581Z,2.00
2018-02-15T11:34:46.036Z,2.11
2018-02-15T11:37:13.505Z,2.08
2018-02-15T11:39:40.960Z,2.16
2018-02-15T11:42:08.536Z,2.16
2018-02-15T11:44:35.990Z,2.23
2018-02-15T11:47:03.441Z,2.32
2018-02-15T11:49:30.936Z,2.30
2018-02-15T11:51:58.381Z,2.21
2018-02-15T11:54:26.101Z,2.29
2018-02-15T11:56:53.553Z,2.29
2018-02-15T11:59:21.010Z,2.28
2018-02-15T12:01:48.591Z,2.23
2018-02-15T12:04:16.064Z,2.25
2018-02-15T12:06:43.552Z,2.46
2018-02-15T12:09:11.000Z,2.49
2018-02-15T12:11:38.461Z,2.32
2018-02-15T12:14:05.925Z,2.40
2018-02-15T12:16:33.380Z,2.51
2018-02-15T12:19:00.992Z,2.53
2018-02-15T12:21:28.441Z,2.47
2018-02-15T12:23:55.899Z,2.66
2018-02-15T12:26:23.393Z,2.74
2018-02-15T12:28:50.860Z,2.80
2018-02-15T12:31:18.708Z,2.87
2018-02-15T12:33:46.152Z,2.88
2018-02-15T12:36:13.613Z,2.91
2018-02-15T12:38:41.108Z,2.74
2018-02-15T12:41:08.568Z,2.74
2018-02-15T12:43:36.301Z,2.87
2018-02-15T12:46:03.797Z,2.73
2018-02-15T12:48:31.300Z,2.89
2018-02-15T12:50:58.777Z,2.86
2018-02-15T12:53:26.265Z,2.76
2018-02-15T12:55:53.767Z,2.84
2018-02-15T12:58:21.243Z,2.90
2018-02-15T13:00:48.696Z,2.82
2018-02-15T13:03:16.172Z,2.68
2018-02-15T13:05:43.628Z,2.71
2018-02-15T13:08:11.143Z,2.97
2018-02-15T13:10:38.592Z,2.88
2018-02-15T13:13:18.248Z,2.90
2018-02-15T13:15:57.533Z,2.97
2018-02-15T13:18:25.104Z,2.97
2018-02-15T13:20:52.548Z,3.15
2018-02-15T13:23:20.002Z,3.25
2018-02-15T13:25:47.488Z,3.27
2018-02-15T13:28:26.849Z,3.36
2018-02-15T13:30:54.326Z,3.41
2018-02-15T13:33:21.789Z,3.45
2018-02-15T13:35:49.309Z,3.56
2018-02-15T13:38:16.785Z,3.52
2018-02-15T13:40:44.228Z,3.52
2018-02-15T13:43:11.700Z,3.39
2018-02-15T13:45:39.157Z,3.40
2018-02-15T13:48:06.769Z,3.51
2018-02-15T13:50:34.237Z,3.62
2018-02-15T13:53:01.689Z,3.61
2018-02-15T13:55:29.183Z,3.50
2018-02-15T13:57:56.628Z,3.47
2018-02-15T14:00:24.328Z,3.45
2018-02-15T14:02:51.769Z,3.42
2018-02-15T14:05:19.214Z,3.52
2018-02-15T14:07:47.660Z,3.33
2018-02-15T14:10:15.102Z,3.38
2018-02-15T14:12:42.597Z,3.34
2018-02-15T14:15:10.064Z,3.37
2018-02-15T14:17:37.513Z,3.39
2018-02-15T14:20:05.024Z,3.33
2018-02-15T14:22:32.472Z,3.31
2018-02-15T14:24:59.980Z,3.31
2018-02-15T14:27:27.424Z,3.35
2018-02-15T14:29:54.930Z,3.32
2018-02-15T14:32:22.433Z,3.33
2018-02-15T14:34:49.901Z,3.41
2018-02-15T14:37:17.396Z,3.52
2018-02-15T14:39:44.885Z,3.41
2018-02-15T14:42:12.333Z,3.50
2018-02-15T14:44:39.808Z,3.36
2018-02-15T14:47:07.272Z,3.40
2018-02-15T14:49:34.936Z,3.49
2018-02-15T14:52:02.403Z,3.41
2018-02-15T14:54:29.877Z,3.47
2018-02-15T14:56:57.380Z,3.65
2018-02-15T14:59:24.828Z,3.70
2018-02-15T15:01:52.453Z,3.69
2018-02-15T15:04:19.992Z,3.47
2018-02-15T15:06:47.461Z,3.59
2018-02-15T15:09:14.932Z,3.62
2018-02-15T15:11:42.388Z,3.77
2018-02-15T15:14:10.062Z,3.35
2018-02-15T15:16:37.513Z,3.39
2018-02-15T15:19:04.965Z,3.39
2018-02-15T15:21:32.433Z,3.50
2018-02-15T15:23:59.886Z,3.35
2018-02-15T15:26:27.550Z,3.04
2018-02-15T15:28:55.000Z,2.90
2018-02-15T15:31:22.452Z,2.83
2018-02-15T15:33:50.704Z,2.88
2018-02-15T15:36:18.156Z,2.79
2018-02-15T15:38:45.749Z,3.00
2018-02-15T15:41:13.202Z,2.91
2018-02-15T15:43:40.658Z,3.13
2018-02-15T15:46:08.153Z,3.05
2018-02-15T15:48:35.601Z,3.19
2018-02-15T15:51:03.324Z,3.17
2018-02-15T15:53:30.788Z,3.12
2018-02-15T15:55:58.237Z,3.45
2018-02-15T15:58:25.730Z,3.37
2018-02-15T16:00:53.189Z,3.11
2018-02-15T16:03:20.840Z,3.40
2018-02-15T16:05:48.281Z,3.25
2018-02-15T16:08:15.720Z,3.15
2018-02-15T16:10:43.221Z,2.86
2018-02-15T16:13:10.678Z,3.05
2018-02-15T16:15:38.177Z,3.20
2018-02-15T16:18:05.638Z,2.96
2018-02-15T16:20:33.105Z,2.85
2018-02-15T16:23:00.576Z,2.84
2018-02-15T16:25:28.053Z,2.89
2018-02-15T16:27:55.776Z,2.94
2018-02-15T16:30:23.225Z,2.80
2018-02-15T16:32:50.678Z,2.73
2018-02-15T16:35:18.147Z,2.76
2018-02-15T16:37:45.597Z,2.83
2018-02-15T16:40:13.102Z,2.74
2018-02-15T16:42:40.587Z,3.02
2018-02-15T16:45:08.082Z,2.75
2018-02-15T16:47:35.558Z,2.68
2018-02-15T16:50:03.006Z,2.49
2018-02-15T16:52:30.780Z,2.50
2018-02-15T16:54:58.244Z,2.57
2018-02-15T16:57:25.693Z,2.52
2018-02-15T16:59:53.161Z,2.54
2018-02-15T17:02:20.612Z,2.54
2018-02-15T17:04:48.333Z,2.45
2018-02-15T17:07:15.784Z,2.44
2018-02-15T17:09:43.241Z,2.54
2018-02-15T17:12:10.734Z,2.64
2018-02-15T17:14:38.189Z,2.57
2018-02-15T17:17:05.684Z,2.55
2018-02-15T17:19:33.365Z,2.58
2018-02-15T17:22:00.816Z,2.59
2018-02-15T17:24:28.271Z,2.52
2018-02-15T17:26:55.865Z,2.64
2018-02-15T17:29:23.320Z,2.62
2018-02-15T17:31:50.788Z,2.61
2018-02-15T17:34:18.289Z,2.52
2018-02-15T17:36:45.737Z,2.55
2018-02-15T17:39:13.637Z,2.55
2018-02-15T17:41:41.097Z,2.48
2018-02-15T17:44:08.568Z,2.48
2018-02-15T17:46:36.042Z,2.46
2018-02-15T17:49:03.496Z,2.49
2018-02-15T17:51:30.995Z,2.47
2018-02-15T17:53:58.448Z,2.48
2018-02-15T17:56:25.898Z,2.61
2018-02-15T17:58:53.367Z,2.62
2018-02-15T18:01:20.831Z,2.58
2018-02-15T18:03:48.542Z,2.61
2018-02-15T18:06:15.993Z,2.86
2018-02-15T18:08:43.441Z,2.66
2018-02-15T18:11:10.909Z,2.61
2018-02-15T18:13:38.386Z,2.66
2018-02-15T18:16:06.009Z,2.55
2018-02-15T18:18:33.474Z,2.51
2018-02-15T18:21:00.921Z,2.35
2018-02-15T18:23:28.401Z,2.50
2018-02-15T18:25:55.866Z,2.48
2018-02-15T18:28:23.544Z,2.49
2018-02-15T18:30:50.984Z,2.57
2018-02-15T18:33:18.436Z,2.58
2018-02-15T18:35:45.912Z,2.51
2018-02-15T18:38:13.365Z,2.54
2018-02-15T18:40:40.860Z,2.47
2018-02-15T18:43:08.348Z,2.49
2018-02-15T18:45:35.797Z,2.45
2018-02-15T18:48:03.281Z,2.50
2018-02-15T18:50:30.733Z,2.52
2018-02-15T18:52:58.256Z,2.56
2018-02-15T18:55:25.728Z,2.59
2018-02-15T18:57:53.181Z,2.61
2018-02-15T19:00:20.657Z,2.66
2018-02-15T19:02:49.076Z,2.65
2018-02-15T19:05:16.700Z,2.62
2018-02-15T19:07:44.156Z,2.89
2018-02-15T19:10:11.649Z,3.07
2018-02-15T19:12:39.129Z,3.05
2018-02-15T19:15:06.592Z,3.15
2018-02-15T19:17:34.245Z,3.00
2018-02-15T19:20:01.721Z,2.65
2018-02-15T19:22:29.253Z,2.61
2018-02-15T19:24:56.725Z,2.53
2018-02-15T19:27:25.189Z,2.59
2018-02-15T19:29:52.673Z,2.52
2018-02-15T19:32:20.125Z,2.45
2018-02-15T19:34:47.578Z,2.47
2018-02-15T19:37:15.049Z,2.52
2018-02-15T19:39:42.497Z,2.85
2018-02-15T19:42:10.410Z,2.80
2018-02-15T19:44:38.742Z,2.56
2018-02-15T19:47:06.211Z,2.45
2018-02-15T19:49:33.761Z,2.52
2018-02-15T19:52:01.218Z,2.53
2018-02-15T19:54:28.968Z,2.46
2018-02-15T19:56:56.479Z,2.56
2018-02-15T19:59:23.944Z,2.54
2018-02-15T20:01:51.422Z,2.54
2018-02-15T20:04:18.869Z,2.29
2018-02-15T20:06:46.519Z,2.38
2018-02-15T20:09:13.969Z,2.50
2018-02-15T20:11:41.446Z,2.51
2018-02-15T20:14:08.936Z,2.59
2018-02-15T20:16:37.305Z,2.77
2018-02-15T20:19:04.801Z,2.86
2018-02-15T20:21:32.249Z,3.14
2018-02-15T20:23:59.971Z,2.85
2018-02-15T20:26:33.209Z,2.64
2018-02-15T20:29:01.402Z,2.60
2018-02-15T20:31:29.089Z,2.60
2018-02-15T20:33:56.551Z,2.48
2018-02-15T20:36:24.993Z,2.51
2018-02-15T20:38:58.104Z,2.51
2018-02-15T20:41:25.562Z,2.53
2018-02-15T20:43:53.009Z,3.03
2018-02-15T20:46:20.517Z,2.81
2018-02-15T20:48:47.987Z,2.86
2018-02-15T20:51:21.278Z,2.63
2018-02-15T20:53:54.301Z,2.58
2018-02-15T20:56:21.782Z,2.58
2018-02-15T20:58:49.286Z,2.45
2018-02-15T21:01:16.765Z,2.52
2018-02-15T21:03:45.157Z,2.45
2018-02-15T21:06:12.669Z,2.21
2018-02-15T21:08:40.121Z,2.20
2018-02-15T21:11:07.854Z,2.15
2018-02-15T21:13:35.369Z,2.26
2018-02-15T21:16:02.826Z,2.30
2018-02-15T21:18:30.605Z,2.44
2018-02-15T21:20:58.098Z,2.44
2018-02-15T21:23:25.545Z,2.52
2018-02-15T21:25:53.197Z,2.48
2018-02-15T21:28:20.645Z,2.55
2018-02-15T21:30:48.105Z,2.57
2018-02-15T21:33:15.903Z,2.58
2018-02-15T21:35:43.356Z,2.58
2018-02-15T21:38:10.801Z,2.56
2018-02-15T21:40:38.609Z,2.56
2018-02-15T21:43:06.088Z,2.52
2018-02-15T21:45:33.545Z,2.55
2018-02-15T21:48:01.029Z,2.59
2018-02-15T21:50:28.481Z,2.61
2018-02-15T21:52:55.964Z,2.57
2018-02-15T21:55:23.628Z,2.78
2018-02-15T21:57:51.081Z,2.76
2018-02-15T22:00:18.528Z,2.55
2018-02-15T22:02:46.453Z,2.50
2018-02-15T22:05:13.901Z,2.50
2018-02-15T22:07:41.369Z,2.50
2018-02-15T22:10:09.057Z,2.46
2018-02-15T22:12:36.548Z,2.39
2018-02-15T22:15:04.000Z,2.37
2018-02-15T22:17:31.712Z,2.44
2018-02-15T22:19:59.158Z,2.45
2018-02-15T22:22:26.605Z,2.43
2018-02-15T22:24:54.088Z,2.43
2018-02-15T22:27:21.545Z,2.47
2018-02-15T22:29:48.989Z,2.35
2018-02-15T22:32:16.751Z,2.37
2018-02-15T22:34:44.221Z,2.26
2018-02-15T22:37:11.664Z,2.23
2018-02-15T22:39:39.158Z,2.25
2018-02-15T22:42:06.613Z,2.28
2018-02-15T22:44:34.062Z,2.30
2018-02-15T22:47:01.555Z,2.30
2018-02-15T22:49:29.017Z,2.40
2018-02-15T22:51:56.464Z,2.45
2018-02-15T22:54:23.941Z,2.41
2018-02-15T22:56:51.397Z,2.33
2018-02-15T22:59:18.844Z,2.45
2018-02-15T23:01:46.343Z,2.41
2018-02-15T23:04:13.788Z,2.64
2018-02-15T23:06:41.238Z,2.73
2018-02-15T23:09:09.050Z,2.74
2018-02-15T23:11:36.497Z,2.73
2018-02-15T23:14:03.944Z,2.67
2018-02-15T23:16:31.684Z,2.68
2018-02-15T23:18:59.156Z,2.63
2018-02-15T23:21:26.597Z,2.71
2018-02-15T23:23:54.189Z,2.71
2018-02-15T23:26:21.645Z,2.66
2018-02-15T23:28:49.105Z,2.70
2018-02-15T23:31:16.984Z,2.67
2018-02-15T23:33:44.452Z,2.60
2018-02-15T23:36:11.895Z,2.63
2018-02-15T23:38:39.522Z,2.56
2018-02-15T23:41:06.982Z,2.68
2018-02-15T23:43:34.485Z,2.64
2018-02-15T23:46:01.973Z,2.71
2018-02-15T23:48:29.437Z,2.73
2018-02-15T23:50:56.881Z,2.71
2018-02-15T23:53:24.376Z,2.74
2018-02-15T23:55:51.825Z,2.68
2018-02-15T23:58:19.300Z,2.77
